Time;durP1;ratioP1;P1;durP2;ratioP2;P2;SDS_P1;SDS_P2;PMS_P1;PMS_P2;Temp;Humidity;BMP_temperature;BMP_pressure;BME280_temperature;BME280_humidity;BME280_pressure;Samples;Min_cycle;Max_cycle;Signal;HPM_P1;HPM_P2
2022/01/28 00:02:59;;;;;;;1.00;0.50;;;;;;;3.47;100.00;101911.22;6222930;28;20050;-76
2022/01/28 00:06:01;;;;;;;1.45;0.60;;;;;;;3.55;100.00;101919.84;6223097;28;20054;-76
2022/01/28 00:09:02;;;;;;;3.00;1.08;;;;;;;3.46;100.00;101922.50;6222933;28;20504;-78
2022/01/28 00:12:07;;;;;;;5.65;1.35;;;;;;;3.43;100.00;101914.72;6222894;28;20057;-77
2022/01/28 00:15:18;;;;;;;2.10;0.98;;;;;;;3.37;100.00;101928.59;6222682;28;20056;-78
2022/01/28 00:18:55;;;;;;;9.52;0.40;;;;;;;3.43;100.00;101928.56;6224047;28;20417;-77
2022/01/28 00:38:35;;;;;;;1.30;0.38;;;;;;;3.35;100.00;101952.84;6246911;28;20053;-78
2022/01/28 00:41:37;;;;;;;3.65;0.63;;;;;;;3.38;100.00;101966.69;6246470;28;20057;-77
2022/01/28 00:44:38;;;;;;;5.82;1.42;;;;;;;3.47;100.00;101964.06;6246749;28;20054;-76
2022/01/28 00:47:40;;;;;;;6.43;0.60;;;;;;;3.51;100.00;101978.78;6245212;28;20053;-76
2022/01/28 00:50:42;;;;;;;1.25;0.47;;;;;;;3.50;100.00;101979.66;6246509;28;20059;-78
2022/01/28 00:53:44;;;;;;;9.93;1.20;;;;;;;3.48;100.00;101978.78;6246858;28;20054;-78
2022/01/28 00:56:45;;;;;;;4.18;1.00;;;;;;;3.48;100.00;101988.31;6246563;28;20053;-77
2022/01/28 00:59:47;;;;;;;0.60;0.22;;;;;;;3.44;100.00;101982.25;6246589;28;20049;-76
2022/01/28 01:02:49;;;;;;;2.75;0.65;;;;;;;3.42;100.00;101996.16;6246451;28;20409;-76
2022/01/28 01:05:51;;;;;;;2.90;0.63;;;;;;;3.44;100.00;101997.84;6245983;28;20454;-77
2022/01/28 01:08:53;;;;;;;5.50;0.65;;;;;;;3.41;100.00;102026.47;6242008;28;20042;-77
2022/01/28 01:11:55;;;;;;;2.65;0.52;;;;;;;3.39;100.00;101994.41;6244033;28;20052;-76
2022/01/28 01:14:56;;;;;;;3.33;0.47;;;;;;;3.39;100.00;102001.34;6233289;28;20456;-77
2022/01/28 01:18:02;;;;;;;2.83;1.65;;;;;;;3.34;100.00;101996.16;6222951;28;20049;-76
2022/01/28 01:21:08;;;;;;;5.72;0.88;;;;;;;3.34;100.00;102005.69;6221826;28;20053;-77
2022/01/28 01:24:20;;;;;;;5.65;1.15;;;;;;;3.38;100.00;102010.88;6221590;28;20061;-77
2022/01/28 01:27:21;;;;;;;3.42;1.02;;;;;;;3.46;100.00;102016.91;6221850;28;20490;-78
2022/01/28 01:30:24;;;;;;;7.13;1.13;;;;;;;3.45;100.00;102033.38;6221660;28;20046;-77
2022/01/28 01:33:27;;;;;;;13.73;0.75;;;;;;;3.49;100.00;102035.06;6230505;28;20058;-77
2022/01/28 01:36:30;;;;;;;8.32;1.50;;;;;;;3.49;100.00;102034.22;6246475;28;20041;-76
2022/01/28 01:39:35;;;;;;;4.60;1.00;;;;;;;3.54;100.00;102038.56;6246082;28;20437;-78
2022/01/28 01:42:45;;;;;;;1.40;0.57;;;;;;;3.55;100.00;102042.00;6245954;28;20049;-77
2022/01/28 01:46:02;;;;;;;3.38;0.80;;;;;;;3.60;100.00;102036.78;6246185;28;20053;-77
2022/01/28 01:52:25;;;;;;;8.50;1.20;;;;;;;3.65;100.00;102048.03;6245948;28;20092;-76
2022/01/28 01:55:26;;;;;;;8.18;1.00;;;;;;;3.66;100.00;102061.00;6249880;28;20408;-77
2022/01/28 01:58:31;;;;;;;1.92;0.80;;;;;;;3.63;100.00;102083.56;6250317;28;20060;-77
2022/01/28 02:01:33;;;;;;;4.35;0.73;;;;;;;3.56;100.00;102070.59;6250029;28;20112;-77
2022/01/28 02:04:34;;;;;;;4.43;0.57;;;;;;;3.60;100.00;102067.97;6250229;28;20049;-77
2022/01/28 02:07:38;;;;;;;4.88;0.85;;;;;;;3.56;100.00;102072.31;6250165;28;20057;-76
2022/01/28 02:10:40;;;;;;;1.08;0.40;;;;;;;3.53;100.00;102072.31;6249957;28;20060;-77
2022/01/28 02:13:42;;;;;;;3.22;1.23;;;;;;;3.56;100.00;102091.38;6249948;28;20223;-77
2022/01/28 02:16:43;;;;;;;4.97;0.73;;;;;;;3.48;100.00;102085.31;6250034;28;20057;-78
2022/01/28 02:19:44;;;;;;;4.82;1.02;;;;;;;3.51;100.00;102093.13;6249373;28;20049;-77
2022/01/28 02:22:47;;;;;;;1.30;0.65;;;;;;;3.59;100.00;102084.44;6249765;28;20493;-77
2022/01/28 02:25:49;;;;;;;4.22;0.95;;;;;;;3.50;100.00;102093.13;6249328;28;20076;-77
2022/01/28 02:28:54;;;;;;;4.40;0.60;;;;;;;3.42;100.00;102103.53;6249682;28;20050;-77
2022/01/28 02:31:57;;;;;;;3.08;0.57;;;;;;;3.55;100.00;102099.19;6249674;28;20139;-77
2022/01/28 02:34:59;;;;;;;6.53;1.60;;;;;;;3.48;100.00;102095.72;6249559;28;20131;-77
2022/01/28 02:38:02;;;;;;;2.17;0.57;;;;;;;3.42;100.00;102108.75;6249383;28;20045;-77
2022/01/28 02:41:05;;;;;;;1.83;0.60;;;;;;;3.46;100.00;102122.59;6249308;28;20077;-77
2022/01/28 02:44:17;;;;;;;3.13;1.17;;;;;;;3.41;100.00;102132.13;6249167;28;20075;-78
2022/01/28 02:47:30;;;;;;;1.35;0.35;;;;;;;3.29;100.00;102131.28;6249454;28;20045;-78
2022/01/28 02:50:39;;;;;;;3.22;0.98;;;;;;;3.23;100.00;102138.22;6228226;28;20084;-77
2022/01/28 02:53:46;;;;;;;6.78;1.35;;;;;;;3.17;100.00;102136.47;6224826;28;20053;-76
2022/01/28 02:56:50;;;;;;;2.45;0.85;;;;;;;3.15;100.00;102142.53;6224439;28;20053;-77
2022/01/28 02:59:52;;;;;;;2.20;1.13;;;;;;;3.10;100.00;102150.34;6224436;28;20077;-76
2022/01/28 03:02:53;;;;;;;4.70;0.40;;;;;;;3.07;100.00;102150.31;6224238;28;20057;-77
2022/01/28 03:05:54;;;;;;;7.63;1.42;;;;;;;3.20;100.00;102154.66;6224591;28;20548;-77
2022/01/28 03:08:59;;;;;;;5.00;0.98;;;;;;;3.30;100.00;102165.91;6248629;28;20053;-76
2022/01/28 03:12:13;;;;;;;0.40;0.40;;;;;;;3.31;100.00;102165.88;6239241;28;20560;-76
2022/01/28 03:15:20;;;;;;;2.45;0.75;;;;;;;3.39;100.00;102165.03;6248460;28;20060;-77
2022/01/28 03:18:25;;;;;;;2.05;0.40;;;;;;;3.39;100.00;102157.25;6248028;28;20052;-78
2022/01/28 03:21:41;;;;;;;3.47;0.98;;;;;;;3.34;100.00;102165.03;6248213;28;20052;-77
2022/01/28 03:24:47;;;;;;;2.80;0.73;;;;;;;3.29;100.00;102166.78;6248096;28;20394;-76
2022/01/28 03:27:51;;;;;;;4.13;0.93;;;;;;;3.41;100.00;102173.72;6230006;28;20049;-77
2022/01/28 03:30:53;;;;;;;7.63;0.55;;;;;;;3.37;100.00;102180.63;6223328;28;20073;-77
2022/01/28 03:33:54;;;;;;;10.90;0.95;;;;;;;3.36;100.00;102196.22;6233181;28;20053;-77
2022/01/28 03:36:57;;;;;;;0.35;0.35;;;;;;;3.31;100.00;102181.47;6248180;28;20448;-77
2022/01/28 03:40:00;;;;;;;5.93;0.80;;;;;;;3.30;100.00;102195.34;6247590;28;20049;-77
2022/01/28 03:43:02;;;;;;;4.78;0.77;;;;;;;3.30;100.00;102212.66;6248062;28;20061;-76
2022/01/28 03:46:04;;;;;;;5.15;2.30;;;;;;;3.29;100.00;102201.41;6247820;28;20045;-78
2022/01/28 03:49:05;;;;;;;5.25;0.90;;;;;;;3.36;100.00;102217.00;6236005;28;20048;-77
2022/01/28 03:52:07;;;;;;;6.50;0.93;;;;;;;3.28;100.00;102207.47;6222940;28;20058;-78
2022/01/28 03:55:11;;;;;;;5.22;0.60;;;;;;;3.18;100.00;102207.47;6223062;28;20457;-77
2022/01/28 03:58:12;;;;;;;4.07;0.82;;;;;;;3.17;100.00;102221.31;6223274;28;20049;-77
2022/01/28 04:01:17;;;;;;;3.75;0.57;;;;;;;3.21;100.00;102229.13;6222742;28;20054;-77
2022/01/28 04:14:41;;;;;;;;;;;;;;;3.31;100.00;102232.59;6247308;28;20046;-75
2022/01/28 04:17:42;;;;;;;1.20;0.45;;;;;;;3.26;100.00;102235.16;6246523;28;19921;-75
2022/01/28 04:20:43;;;;;;;7.53;0.90;;;;;;;3.20;100.00;102242.13;6247006;28;20050;-75
2022/01/28 04:23:45;;;;;;;0.20;0.17;;;;;;;3.21;100.00;102239.50;6245220;28;20060;-76
2022/01/28 04:26:47;;;;;;;5.32;0.95;;;;;;;3.28;100.00;102250.78;6246956;28;20061;-75
2022/01/28 04:29:49;;;;;;;5.55;0.60;;;;;;;3.27;100.00;102252.53;6246404;28;20065;-75
2022/01/28 04:32:51;;;;;;;2.42;0.65;;;;;;;3.29;100.00;102250.78;6235895;28;20053;-75
2022/01/28 04:35:54;;;;;;;1.77;0.35;;;;;;;3.33;100.00;102256.84;6233116;28;20042;-75
2022/01/28 04:39:02;;;;;;;3.80;0.63;;;;;;;3.29;100.00;102240.38;6232179;28;20045;-75
2022/01/28 04:42:14;;;;;;;7.88;1.23;;;;;;;3.27;100.00;102249.94;6237423;28;20401;-75
2022/01/28 04:45:22;;;;;;;1.42;0.73;;;;;;;3.28;100.00;102246.44;6246781;28;20527;-74
2022/01/28 04:48:30;;;;;;;11.88;1.27;;;;;;;3.35;100.00;102254.25;6246729;28;20069;-75
2022/01/28 04:51:48;;;;;;;8.32;1.80;;;;;;;3.32;100.00;102265.50;6245737;28;20057;-75
2022/01/28 04:55:02;;;;;;;4.47;1.00;;;;;;;3.30;100.00;102257.69;6246428;28;20398;-75
2022/01/28 04:58:16;;;;;;;9.75;1.08;;;;;;;3.31;100.00;102281.94;6246660;28;20052;-75
2022/01/28 05:02:00;;;;;;;6.85;0.82;;;;;;;3.37;100.00;102283.72;6246179;28;20053;-76
2022/01/28 05:05:15;;;;;;;1.00;0.68;;;;;;;3.34;100.00;102294.09;6246327;28;20053;-75
2022/01/28 05:08:40;;;;;;;9.23;1.88;;;;;;;3.38;100.00;102303.63;6245379;28;20505;-74
2022/01/28 05:28:35;;;;;;;8.13;0.93;;;;;;;3.51;100.00;102324.44;6211447;28;20045;-75
2022/01/28 05:31:38;;;;;;;0.60;0.43;;;;;;;3.44;100.00;102333.06;6250727;28;20496;-75
2022/01/28 05:34:40;;;;;;;1.77;0.75;;;;;;;3.48;100.00;102360.78;6250955;28;20056;-76
2022/01/28 05:37:42;;;;;;;1.88;0.70;;;;;;;3.51;100.00;102359.94;6250470;28;20049;-75
2022/01/28 05:40:43;;;;;;;3.47;1.67;;;;;;;3.59;100.00;102376.44;6231141;28;20077;-74
2022/01/28 05:43:44;;;;;;;2.15;0.40;;;;;;;3.52;100.00;102380.75;6226196;28;20054;-75
2022/01/28 05:46:47;;;;;;;5.68;0.75;;;;;;;3.20;100.00;102388.44;6225915;28;20054;-75
2022/01/28 05:49:48;;;;;;;0.47;0.30;;;;;;;3.05;100.00;102396.19;6225925;28;20057;-75
2022/01/28 05:52:50;;;;;;;0.88;0.28;;;;;;;2.94;100.00;102414.28;6247359;28;20049;-75
2022/01/28 05:55:51;;;;;;;0.73;0.30;;;;;;;2.93;100.00;102414.28;6250307;28;20057;-75
2022/01/28 05:58:53;;;;;;;0.73;0.20;;;;;;;2.90;100.00;102415.13;6250259;28;20046;-75
2022/01/28 06:01:56;;;;;;;1.92;0.85;;;;;;;2.96;100.00;102410.00;6250045;28;20053;-75
2022/01/28 06:04:57;;;;;;;0.65;0.40;;;;;;;2.96;100.00;102401.34;6250035;28;20064;-75
2022/01/28 06:08:00;;;;;;;5.18;0.60;;;;;;;2.94;100.00;102398.72;6250104;28;20432;-75
2022/01/28 06:11:01;;;;;;;2.78;0.50;;;;;;;2.91;100.00;102406.50;6249745;28;20053;-75
2022/01/28 06:14:03;;;;;;;7.28;1.20;;;;;;;2.88;100.00;102403.88;6249765;28;20046;-75
2022/01/28 06:17:05;;;;;;;4.55;0.93;;;;;;;2.90;100.00;102422.91;6249867;28;20469;-75
2022/01/28 06:20:09;;;;;;;1.90;0.70;;;;;;;2.95;100.00;102422.94;6248628;28;20052;-75
2022/01/28 06:23:12;;;;;;;1.67;0.52;;;;;;;2.96;100.00;102428.16;6244627;28;20049;-74
2022/01/28 06:26:13;;;;;;;8.07;0.73;;;;;;;2.97;100.00;102437.69;6241216;28;20143;-75
2022/01/28 06:29:14;;;;;;;1.13;0.38;;;;;;;3.09;100.00;102449.00;6224888;28;20167;-74
2022/01/28 06:32:17;;;;;;;1.10;0.47;;;;;;;3.17;100.00;102444.72;6224598;28;20414;-76
2022/01/28 06:35:18;;;;;;;4.65;0.38;;;;;;;3.17;100.00;102445.56;6237890;28;20060;-74
2022/01/28 06:38:20;;;;;;;1.88;0.22;;;;;;;3.18;100.00;102434.34;6233940;28;20057;-75
2022/01/28 06:41:21;;;;;;;8.73;1.27;;;;;;;3.21;100.00;102449.06;6224140;28;20046;-75
2022/01/28 06:44:22;;;;;;;5.38;1.50;;;;;;;3.27;100.00;102462.06;6224535;28;20050;-75
2022/01/28 06:47:26;;;;;;;5.13;1.13;;;;;;;3.42;100.00;102456.94;6224706;28;20049;-75
2022/01/28 06:50:27;;;;;;;3.45;1.08;;;;;;;3.39;100.00;102469.91;6224150;28;20108;-74
2022/01/28 06:53:28;;;;;;;8.15;0.95;;;;;;;3.41;100.00;102482.94;6224627;28;20061;-75
2022/01/28 06:56:30;;;;;;;4.07;0.60;;;;;;;3.37;100.00;102489.84;6225907;28;20394;-75
2022/01/28 06:59:31;;;;;;;9.23;2.10;;;;;;;3.45;100.00;102497.66;6243080;28;20050;-75
2022/01/28 07:02:34;;;;;;;5.57;0.40;;;;;;;3.40;100.00;102482.03;6248457;28;20045;-75
2022/01/28 07:05:35;;;;;;;6.13;1.58;;;;;;;3.48;100.00;102489.88;6248832;28;20057;-75
2022/01/28 07:08:38;;;;;;;11.18;1.17;;;;;;;3.45;100.00;102488.16;6247723;28;20043;-75
2022/01/28 07:11:39;;;;;;;4.80;1.85;;;;;;;3.45;100.00;102488.16;6239189;28;20645;-75
2022/01/28 07:14:40;;;;;;;2.50;0.70;;;;;;;3.43;100.00;102489.88;6239262;28;20049;-75
2022/01/28 07:17:43;;;;;;;5.63;0.82;;;;;;;3.44;100.00;102507.19;6245193;28;20042;-75
2022/01/28 07:20:44;;;;;;;1.58;0.40;;;;;;;3.40;100.00;102505.44;6228311;28;20050;-75
2022/01/28 07:23:46;;;;;;;2.38;0.80;;;;;;;3.40;100.00;102507.16;6227281;28;20050;-75
2022/01/28 07:26:48;;;;;;;5.13;1.17;;;;;;;3.40;100.00;102526.22;6239643;28;20525;-75
2022/01/28 07:29:50;;;;;;;1.35;0.70;;;;;;;3.49;100.00;102534.06;6235527;28;20054;-75
2022/01/28 07:32:53;;;;;;;2.38;0.40;;;;;;;3.51;100.00;102539.28;6223562;28;20136;-75
2022/01/28 07:35:54;;;;;;;4.00;0.70;;;;;;;3.59;100.00;102542.81;6223415;28;20502;-74
2022/01/28 07:38:55;;;;;;;8.48;1.65;;;;;;;3.70;100.00;102532.44;6223578;28;20049;-74
2022/01/28 07:41:57;;;;;;;9.48;1.38;;;;;;;3.64;100.00;102540.22;6223565;28;20072;-75
2022/01/28 07:44:58;;;;;;;5.35;1.38;;;;;;;3.71;100.00;102552.38;6247220;28;20050;-75
2022/01/28 07:48:01;;;;;;;4.45;0.80;;;;;;;3.74;100.00;102553.25;6247715;28;20060;-74
2022/01/28 07:51:02;;;;;;;2.53;0.57;;;;;;;3.74;100.00;102555.84;6246618;28;20069;-74
2022/01/28 07:54:04;;;;;;;2.67;1.17;;;;;;;3.83;100.00;102554.16;6247396;28;20508;-78
2022/01/28 07:57:06;;;;;;;8.50;0.95;;;;;;;3.86;100.00;102556.75;6242308;28;20081;-74
2022/01/28 08:00:10;;;;;;;2.25;1.05;;;;;;;3.81;100.00;102564.53;6246913;28;20489;-73
2022/01/28 08:03:13;;;;;;;13.93;1.35;;;;;;;3.76;100.00;102584.44;6246715;28;20056;-73
2022/01/28 08:06:14;;;;;;;7.15;1.42;;;;;;;3.79;100.00;102579.28;6247331;28;20155;-74
2022/01/28 08:09:16;;;;;;;3.55;0.80;;;;;;;3.83;100.00;102582.75;6246968;28;20045;-74
2022/01/28 08:12:17;;;;;;;8.52;0.93;;;;;;;3.90;100.00;102584.50;6241490;28;20442;-73
2022/01/28 08:15:19;;;;;;;6.82;1.70;;;;;;;3.89;100.00;102585.38;6226254;28;20133;-74
2022/01/28 08:18:22;;;;;;;5.78;1.42;;;;;;;3.85;100.00;102584.47;6238665;28;20056;-73
2022/01/28 08:21:23;;;;;;;2.72;1.17;;;;;;;3.86;100.00;102588.84;6229960;28;20133;-73
2022/01/28 08:24:25;;;;;;;6.28;1.00;;;;;;;3.83;100.00;102593.16;6222023;28;20520;-72
2022/01/28 08:27:26;;;;;;;2.38;0.73;;;;;;;3.82;100.00;102607.91;6246599;28;20049;-73
2022/01/28 08:30:28;;;;;;;2.92;0.50;;;;;;;3.78;100.00;102608.75;6243932;28;20042;-73
2022/01/28 08:33:31;;;;;;;3.03;0.98;;;;;;;3.84;100.00;102613.97;6242297;28;20053;-74
2022/01/28 08:36:33;;;;;;;2.10;0.85;;;;;;;3.90;100.00;102615.72;6228450;28;20452;-73
2022/01/28 08:39:35;;;;;;;1.40;0.50;;;;;;;3.91;100.00;102620.06;6231527;28;20042;-73
2022/01/28 08:42:37;;;;;;;4.43;0.95;;;;;;;3.92;100.00;102621.81;6231745;28;20053;-74
2022/01/28 08:45:38;;;;;;;9.40;1.15;;;;;;;3.96;100.00;102632.22;6246602;28;20056;-73
2022/01/28 08:48:41;;;;;;;4.15;1.52;;;;;;;4.01;100.00;102642.66;6243348;28;20493;-75
2022/01/28 08:51:42;;;;;;;0.55;0.38;;;;;;;4.02;100.00;102658.25;6244751;28;20059;-73
2022/01/28 08:54:44;;;;;;;1.63;0.65;;;;;;;4.06;100.00;102659.16;6244556;28;20421;-74
2022/01/28 08:57:46;;;;;;;9.23;1.08;;;;;;;4.11;100.00;102672.19;6239497;28;20501;-74
2022/01/28 09:00:48;;;;;;;3.22;0.80;;;;;;;4.23;100.00;102674.84;6241829;28;20048;-75
2022/01/28 09:03:52;;;;;;;7.28;1.00;;;;;;;4.20;100.00;102677.41;6237265;28;20065;-75
2022/01/28 09:06:53;;;;;;;9.25;1.05;;;;;;;4.21;100.00;102680.03;6239776;28;20493;-72
2022/01/28 09:10:02;;;;;;;11.88;1.08;;;;;;;4.24;100.00;102681.78;6248422;28;20042;-73
2022/01/28 09:13:23;;;;;;;2.28;1.05;;;;;;;4.27;100.00;102692.19;6242473;28;20049;-74
2022/01/28 09:16:25;;;;;;;14.32;2.03;;;;;;;4.30;100.00;102698.28;6245478;28;20045;-73
2022/01/28 09:19:28;;;;;;;6.15;1.13;;;;;;;4.29;100.00;102703.47;6245232;28;20057;-73
2022/01/28 09:22:29;;;;;;;2.20;0.60;;;;;;;4.35;100.00;102708.69;6248596;28;20049;-74
2022/01/28 09:25:31;;;;;;;15.10;1.33;;;;;;;4.40;100.00;102721.72;6249823;28;20053;-74
2022/01/28 09:28:32;;;;;;;3.92;1.15;;;;;;;4.43;100.00;102722.63;6250396;28;20045;-74
2022/01/28 09:31:33;;;;;;;3.63;1.38;;;;;;;4.50;100.00;102726.13;6248330;28;20064;-73
2022/01/28 09:34:36;;;;;;;7.85;0.88;;;;;;;4.57;100.00;102725.28;6250021;28;20061;-74
2022/01/28 09:37:37;;;;;;;6.78;0.90;;;;;;;4.64;98.95;102740.06;6250109;28;20052;-75
2022/01/28 09:40:39;;;;;;;6.28;1.60;;;;;;;4.75;99.09;102742.69;6249689;28;20049;-74
2022/01/28 09:43:43;;;;;;;5.82;1.33;;;;;;;4.79;98.18;102747.91;6250249;28;20060;-74
2022/01/28 09:46:45;;;;;;;5.93;1.25;;;;;;;4.84;99.35;102751.41;6250158;28;20053;-75
2022/01/28 09:49:48;;;;;;;7.97;0.60;;;;;;;4.95;97.81;102760.97;6249392;28;20056;-75
2022/01/28 09:52:51;;;;;;;10.45;1.48;;;;;;;4.96;97.68;102766.22;6247702;28;20049;-74
2022/01/28 09:55:52;;;;;;;8.27;1.25;;;;;;;4.91;95.45;102780.97;6244677;28;20041;-74
2022/01/28 09:58:53;;;;;;;3.65;1.17;;;;;;;4.90;95.89;102793.97;6249575;28;20056;-74
2022/01/28 10:01:56;;;;;;;10.10;2.35;;;;;;;4.93;96.71;102791.38;6249546;28;20493;-74
2022/01/28 10:04:59;;;;;;;1.73;0.60;;;;;;;4.93;96.98;102787.03;6244867;28;20203;-74
2022/01/28 10:08:09;;;;;;;3.85;1.20;;;;;;;4.93;97.56;102786.16;6244418;28;20056;-74
2022/01/28 10:11:14;;;;;;;7.68;1.33;;;;;;;4.93;95.28;102786.16;6225373;28;20050;-75
2022/01/28 10:14:19;;;;;;;7.15;1.60;;;;;;;4.90;96.02;102781.81;6224620;28;20512;-76
2022/01/28 10:17:21;;;;;;;2.42;0.70;;;;;;;4.92;95.58;102779.22;6225346;28;20049;-76
2022/01/28 10:20:26;;;;;;;2.45;0.52;;;;;;;4.95;94.17;102787.03;6248248;28;20052;-76
2022/01/28 10:23:27;;;;;;;8.02;0.70;;;;;;;4.99;94.89;102780.97;6249743;28;20049;-75
2022/01/28 10:26:32;;;;;;;9.20;1.45;;;;;;;4.99;97.14;102799.19;6249142;28;20046;-75
2022/01/28 10:29:34;;;;;;;1.15;0.60;;;;;;;4.92;97.24;102797.47;6249493;28;20053;-76
2022/01/28 10:32:36;;;;;;;2.78;1.75;;;;;;;4.90;96.52;102791.34;6247585;28;20049;-76
2022/01/28 10:35:39;;;;;;;9.38;2.28;;;;;;;4.92;97.03;102792.25;6238819;28;20093;-76
2022/01/28 10:38:42;;;;;;;6.18;0.68;;;;;;;5.03;96.56;102799.22;6225054;28;20050;-76
2022/01/28 10:41:58;;;;;;;5.95;0.70;;;;;;;5.05;95.79;102786.22;6224476;28;20050;-76
2022/01/28 10:45:02;;;;;;;5.00;1.42;;;;;;;5.00;95.11;102788.81;6224949;28;20053;-76
2022/01/28 10:48:03;;;;;;;8.60;0.90;;;;;;;4.95;96.47;102785.31;6226739;28;20049;-75
2022/01/28 10:51:07;;;;;;;5.43;1.50;;;;;;;5.05;96.36;102791.41;6247219;28;20045;-75
2022/01/28 10:54:10;;;;;;;7.72;1.20;;;;;;;5.12;95.42;102789.69;6248645;28;20049;-76
2022/01/28 10:57:11;;;;;;;8.60;1.92;;;;;;;5.24;93.60;102794.94;6225135;28;20069;-76
2022/01/28 11:00:14;;;;;;;8.68;2.15;;;;;;;5.18;94.81;102794.91;6223929;28;20050;-76
2022/01/28 11:03:18;;;;;;;4.03;0.63;;;;;;;5.17;94.00;102795.78;6248336;28;20045;-76
2022/01/28 11:06:21;;;;;;;3.38;0.60;;;;;;;5.18;95.27;102801.00;6247290;28;20069;-76
2022/01/28 11:09:23;;;;;;;3.30;1.13;;;;;;;5.19;94.20;102807.94;6239912;28;20053;-76
2022/01/28 11:12:25;;;;;;;4.88;0.82;;;;;;;5.30;94.98;102800.16;6245862;28;20046;-75
2022/01/28 11:15:27;;;;;;;8.55;3.10;;;;;;;5.49;92.12;102801.03;6230371;28;20046;-75
2022/01/28 11:18:30;;;;;;;6.15;1.90;;;;;;;5.54;93.05;102797.59;6245809;28;20045;-75
2022/01/28 11:21:49;;;;;;;7.63;1.95;;;;;;;5.73;91.71;102801.06;6248261;28;20052;-76
2022/01/28 11:25:09;;;;;;;3.20;0.68;;;;;;;5.95;90.79;102804.56;6238483;28;20061;-75
2022/01/28 11:28:12;;;;;;;18.05;1.70;;;;;;;5.91;85.82;102797.56;6223722;28;20060;-77
2022/01/28 11:31:15;;;;;;;1.88;0.77;;;;;;;5.73;86.44;102806.28;6223233;28;20056;-75
2022/01/28 11:34:19;;;;;;;8.50;1.65;;;;;;;5.68;87.31;102809.72;6223629;28;20050;-76
2022/01/28 11:37:30;;;;;;;8.60;1.02;;;;;;;5.95;86.65;102808.88;6223216;28;20494;-76
2022/01/28 11:40:45;;;;;;;4.15;1.42;;;;;;;6.13;83.26;102802.78;6223117;28;20053;-76
2022/01/28 11:43:50;;;;;;;8.55;0.80;;;;;;;6.10;85.07;102819.31;6223128;28;20429;-76
2022/01/28 11:47:01;;;;;;;6.22;1.45;;;;;;;6.16;84.05;102823.66;6223611;28;20053;-76
2022/01/28 11:50:07;;;;;;;7.75;0.60;;;;;;;6.05;84.69;102816.72;6222848;28;20387;-76
2022/01/28 11:53:24;;;;;;;11.30;1.15;;;;;;;6.04;85.80;102820.22;6223414;28;20050;-75
2022/01/28 11:56:26;;;;;;;2.78;1.85;;;;;;;6.08;84.05;102827.13;6241335;28;20105;-76
2022/01/28 11:59:28;;;;;;;8.90;1.15;;;;;;;5.91;85.66;102839.31;6247444;28;20053;-75
2022/01/28 12:02:46;;;;;;;2.47;0.73;;;;;;;5.83;86.03;102844.53;6246659;28;20056;-75
2022/01/28 12:05:52;;;;;;;13.27;1.70;;;;;;;5.82;87.40;102840.19;6247364;28;20052;-75
2022/01/28 12:08:56;;;;;;;3.75;0.80;;;;;;;5.85;86.43;102841.91;6247323;28;20056;-75
2022/01/28 12:11:58;;;;;;;4.95;0.93;;;;;;;5.83;86.32;102839.31;6247060;28;20053;-76
2022/01/28 12:15:09;;;;;;;12.23;1.27;;;;;;;5.82;86.87;102834.97;6247314;28;20056;-76
2022/01/28 12:18:12;;;;;;;7.57;0.45;;;;;;;5.96;87.32;102842.81;6247154;28;20049;-76
2022/01/28 12:21:14;;;;;;;6.00;0.60;;;;;;;6.02;85.41;102847.16;6246403;28;20057;-76
2022/01/28 12:24:34;;;;;;;2.05;0.57;;;;;;;6.01;86.42;102830.63;6247139;28;20076;-77
2022/01/28 12:27:35;;;;;;;;;;;;;;;5.99;85.51;102823.66;6241696;28;20179;-76
2022/01/28 12:30:36;;;;;;;4.20;0.90;;;;;;;5.84;86.40;102816.69;6246746;28;19921;-76
2022/01/28 12:33:40;;;;;;;4.53;1.20;;;;;;;5.77;88.97;102808.00;6246444;28;20049;-76
2022/01/28 12:36:42;;;;;;;7.78;1.48;;;;;;;5.83;89.21;102808.00;6246410;28;20437;-76
2022/01/28 12:39:51;;;;;;;10.90;1.27;;;;;;;5.81;89.27;102814.97;6246290;28;20053;-77
2022/01/28 12:42:53;;;;;;;6.72;0.90;;;;;;;5.77;89.13;102815.84;6246697;28;20053;-75
2022/01/28 12:45:59;;;;;;;2.97;0.70;;;;;;;5.72;86.68;102817.59;6246516;28;20068;-76
2022/01/28 12:49:02;;;;;;;4.53;0.60;;;;;;;5.72;83.47;102835.84;6246548;28;20046;-75
2022/01/28 12:52:06;;;;;;;7.68;1.45;;;;;;;5.70;84.98;102818.44;6246268;28;20451;-77
2022/01/28 12:55:10;;;;;;;5.82;0.88;;;;;;;5.88;86.18;102823.66;6245971;28;20049;-75
2022/01/28 12:58:12;;;;;;;7.82;0.93;;;;;;;5.99;85.11;102824.53;6234119;28;20058;-75
2022/01/28 13:01:16;;;;;;;7.32;0.77;;;;;;;6.23;82.64;102817.56;6233197;28;20050;-76
2022/01/28 13:04:21;;;;;;;2.90;1.15;;;;;;;6.35;84.44;102826.22;6239988;28;20054;-76
2022/01/28 13:10:40;;;;;;;11.07;1.83;;;;;;;6.25;81.87;102819.28;6212888;28;20046;-76
2022/01/28 13:13:47;;;;;;;5.20;0.40;;;;;;;6.20;83.23;102815.81;6246529;28;20045;-72
2022/01/28 13:16:50;;;;;;;6.43;1.40;;;;;;;6.21;85.79;102820.16;6246286;28;20041;-77
2022/01/28 13:19:55;;;;;;;5.18;0.75;;;;;;;6.34;84.31;102818.41;6245626;28;20042;-77
2022/01/28 13:22:57;;;;;;;4.03;1.05;;;;;;;6.56;79.63;102824.44;6232869;28;20064;-72
2022/01/28 13:26:05;;;;;;;3.20;1.00;;;;;;;6.66;77.19;102826.13;6234217;28;20501;-76
2022/01/28 13:29:09;;;;;;;8.50;0.88;;;;;;;6.74;77.10;102820.91;6245964;28;20053;-77
2022/01/28 13:32:12;;;;;;;5.53;0.90;;;;;;;6.78;77.49;102820.88;6227673;28;20049;-76
2022/01/28 13:35:16;;;;;;;6.63;1.95;;;;;;;6.64;78.67;102816.59;6243726;28;20056;-77
2022/01/28 13:38:20;;;;;;;5.15;1.45;;;;;;;6.60;80.23;102816.59;6245583;28;20046;-77
2022/01/28 13:41:24;;;;;;;5.50;0.88;;;;;;;6.52;83.14;102820.09;6243691;28;20482;-77
2022/01/28 13:44:30;;;;;;;4.55;1.20;;;;;;;6.43;82.78;102826.22;6243602;28;20167;-76
2022/01/28 13:47:51;;;;;;;1.88;0.68;;;;;;;6.38;83.86;102819.28;6243545;28;20153;-77
2022/01/28 13:50:54;;;;;;;3.35;1.08;;;;;;;6.25;83.93;102818.41;6247592;28;20046;-76
2022/01/28 13:54:18;;;;;;;5.95;1.10;;;;;;;6.18;84.27;102821.94;6250051;28;20389;-76
2022/01/28 13:57:28;;;;;;;6.65;1.95;;;;;;;6.14;85.36;102807.16;6248863;28;20136;-76
2022/01/28 14:00:44;;;;;;;4.85;0.80;;;;;;;6.14;85.14;102810.63;6250376;28;20049;-76
2022/01/28 14:03:51;;;;;;;13.75;1.77;;;;;;;6.10;85.27;102807.16;6250461;28;20057;-76
2022/01/28 14:07:11;;;;;;;3.20;1.38;;;;;;;6.12;85.51;102807.13;6249419;28;20052;-76
2022/01/28 14:10:18;;;;;;;2.50;0.73;;;;;;;6.04;85.12;102816.69;6242844;28;20049;-76
2022/01/28 14:13:22;;;;;;;12.30;1.00;;;;;;;5.96;87.69;102814.13;6225361;28;20085;-76
2022/01/28 14:16:26;;;;;;;6.95;0.93;;;;;;;5.95;88.61;102817.63;6225334;28;20053;-76
2022/01/28 14:19:32;;;;;;;8.23;0.85;;;;;;;5.95;88.43;102820.22;6224901;28;20050;-76
2022/01/28 14:22:33;;;;;;;6.22;0.98;;;;;;;5.89;90.50;102832.34;6227745;28;20049;-77
2022/01/28 14:25:34;;;;;;;1.65;0.95;;;;;;;5.89;90.29;102832.34;6246825;28;20424;-76
2022/01/28 14:29:08;;;;;;;3.88;0.98;;;;;;;5.95;88.93;102833.28;6249669;28;20053;-76
2022/01/28 14:31:59;;;;;;;6.57;0.70;;;;;;;5.90;90.68;102832.34;6249092;28;20049;-76
2022/01/28 14:35:00;;;;;;;10.73;1.50;;;;;;;5.90;90.77;102842.78;6249679;28;20045;-76
2022/01/28 14:38:03;;;;;;;4.32;1.15;;;;;;;5.88;89.11;102847.13;6249368;28;20049;-77
2022/01/28 14:41:04;;;;;;;6.90;0.82;;;;;;;5.89;90.86;102843.66;6249346;28;20071;-77
2022/01/28 14:44:07;;;;;;;5.88;0.73;;;;;;;5.90;90.74;102845.38;6249127;28;20049;-77
2022/01/28 14:47:10;;;;;;;1.25;0.73;;;;;;;5.97;89.03;102851.53;6249303;28;20075;-77
2022/01/28 14:50:12;;;;;;;10.70;1.50;;;;;;;5.96;89.96;102850.66;6248915;28;20049;-77
2022/01/28 14:53:13;;;;;;;5.00;0.35;;;;;;;5.85;89.00;102845.38;6247292;28;20049;-77
2022/01/28 14:56:14;;;;;;;15.90;1.60;;;;;;;5.85;88.74;102847.13;6249012;28;20060;-77
2022/01/28 14:59:17;;;;;;;10.30;1.65;;;;;;;5.78;90.21;102841.06;6249113;28;20050;-76
2022/01/28 15:02:24;;;;;;;3.92;1.13;;;;;;;5.71;90.44;102849.72;6248283;28;20041;-77
2022/01/28 15:05:26;;;;;;;4.38;0.43;;;;;;;5.63;90.35;102853.19;6248960;28;20084;-77
2022/01/28 15:08:28;;;;;;;4.85;0.63;;;;;;;5.59;89.28;102863.66;6247974;28;20049;-78
2022/01/28 15:11:42;;;;;;;4.53;0.50;;;;;;;5.49;90.78;102867.09;6241871;28;20042;-77
2022/01/28 15:14:45;;;;;;;5.35;0.80;;;;;;;5.47;89.93;102860.16;6245015;28;20414;-76